createdAt,value
2018-02-20T00:00:24.404Z,36.80
2018-02-20T00:02:52.882Z,33.57
2018-02-20T00:05:21.308Z,40.60
2018-02-20T00:07:49.721Z,37.27
2018-02-20T00:10:18.182Z,40.80
2018-02-20T00:12:46.612Z,42.87
2018-02-20T00:15:15.033Z,37.33
2018-02-20T00:17:43.499Z,38.93
2018-02-20T00:20:11.919Z,40.50
2018-02-20T00:22:40.344Z,42.33
2018-02-20T00:25:08.827Z,38.03
2018-02-20T00:27:37.263Z,39.03
2018-02-20T00:30:05.687Z,39.67
2018-02-20T00:32:34.152Z,40.43
2018-02-20T00:35:02.562Z,42.37
2018-02-20T00:37:30.995Z,39.47
2018-02-20T00:39:59.464Z,39.23
2018-02-20T00:42:27.902Z,41.83
2018-02-20T00:44:56.341Z,41.33
2018-02-20T00:47:24.827Z,39.80
2018-02-20T00:49:53.256Z,39.77
2018-02-20T00:52:21.685Z,43.27
2018-02-20T00:54:50.146Z,37.60
2018-02-20T00:57:18.570Z,40.17
2018-02-20T00:59:46.992Z,42.43
2018-02-20T01:02:15.454Z,41.27
2018-02-20T01:04:43.874Z,38.17
2018-02-20T01:07:12.294Z,42.50
2018-02-20T01:09:40.756Z,39.53
2018-02-20T01:12:09.174Z,39.90
2018-02-20T01:14:37.601Z,40.70
2018-02-20T01:17:06.096Z,38.83
2018-02-20T01:19:34.531Z,38.27
2018-02-20T01:22:02.950Z,35.20
2018-02-20T01:24:31.428Z,40.47
2018-02-20T01:26:59.860Z,41.07
2018-02-20T01:29:28.289Z,36.10
2018-02-20T01:31:56.760Z,42.73
2018-02-20T01:34:25.181Z,42.07
2018-02-20T01:36:53.602Z,45.87
2018-02-20T01:39:22.062Z,44.67
2018-02-20T01:41:50.492Z,42.93
2018-02-20T01:44:18.928Z,46.53
2018-02-20T01:46:47.407Z,42.07
2018-02-20T01:49:15.818Z,45.87
2018-02-20T01:51:44.259Z,42.10
2018-02-20T01:54:12.711Z,39.77
2018-02-20T01:56:41.130Z,39.83
2018-02-20T01:59:09.547Z,43.63
2018-02-20T02:01:37.997Z,38.47
2018-02-20T02:04:06.428Z,40.87
2018-02-20T02:06:34.851Z,42.23
2018-02-20T02:09:03.349Z,41.23
2018-02-20T02:11:31.787Z,38.90
2018-02-20T02:14:00.204Z,41.63
2018-02-20T02:16:28.672Z,43.87
2018-02-20T02:18:57.104Z,41.67
2018-02-20T02:21:25.548Z,43.60
2018-02-20T02:23:54.023Z,42.50
2018-02-20T02:26:22.441Z,44.53
2018-02-20T02:28:50.868Z,45.97
2018-02-20T02:31:19.329Z,41.10
2018-02-20T02:33:47.757Z,42.47
2018-02-20T02:36:16.195Z,43.73
2018-02-20T02:38:44.668Z,40.23
2018-02-20T02:41:13.100Z,46.20
2018-02-20T02:43:41.570Z,45.80
2018-02-20T02:46:10.045Z,43.53
2018-02-20T02:48:38.470Z,48.63
2018-02-20T02:51:06.905Z,47.60
2018-02-20T02:53:35.388Z,43.43
2018-02-20T02:56:03.833Z,47.60
2018-02-20T02:58:32.254Z,48.40
2018-02-20T03:01:00.730Z,42.63
2018-02-20T03:03:29.157Z,46.73
2018-02-20T03:05:57.601Z,43.60
2018-02-20T03:08:26.073Z,46.03
2018-02-20T03:10:54.499Z,49.80
2018-02-20T03:13:22.944Z,45.07
2018-02-20T03:15:51.414Z,47.47
2018-02-20T03:18:19.843Z,46.37
2018-02-20T03:20:48.279Z,51.80
2018-02-20T03:23:16.746Z,50.40
2018-02-20T03:25:45.180Z,48.60
2018-02-20T03:28:13.623Z,46.60
2018-02-20T03:30:42.091Z,50.83
2018-02-20T03:33:10.524Z,48.97
2018-02-20T03:35:38.964Z,49.97
2018-02-20T03:38:07.438Z,49.97
2018-02-20T03:40:35.873Z,51.37
2018-02-20T03:43:04.299Z,44.47
2018-02-20T03:45:32.771Z,47.90
2018-02-20T03:48:01.193Z,49.80
2018-02-20T03:50:29.624Z,46.53
2018-02-20T03:52:58.102Z,46.33
2018-02-20T03:55:26.536Z,50.27
2018-02-20T03:57:54.968Z,42.43
2018-02-20T04:00:23.447Z,44.63
2018-02-20T04:02:51.897Z,46.03
2018-02-20T04:05:20.336Z,47.77
2018-02-20T04:07:48.817Z,45.23
2018-02-20T04:10:17.238Z,46.37
2018-02-20T04:12:45.672Z,47.57
2018-02-20T04:15:14.143Z,43.73
2018-02-20T04:17:42.568Z,41.63
2018-02-20T04:20:10.989Z,43.73
2018-02-20T04:22:39.471Z,46.40
2018-02-20T04:25:07.904Z,47.47
2018-02-20T04:27:36.335Z,49.37
2018-02-20T04:30:04.802Z,52.37
2018-02-20T04:32:33.247Z,46.00
2018-02-20T04:35:01.684Z,46.73
2018-02-20T04:37:30.371Z,45.97
2018-02-20T04:39:58.805Z,54.27
2018-02-20T04:42:27.236Z,51.20
2018-02-20T04:44:55.712Z,51.57
2018-02-20T04:47:24.130Z,55.27
2018-02-20T04:49:52.564Z,56.00
2018-02-20T04:52:21.027Z,51.33
2018-02-20T04:54:49.461Z,46.77
2018-02-20T04:57:17.891Z,49.43
2018-02-20T04:59:46.383Z,49.17
2018-02-20T05:02:14.822Z,46.60
2018-02-20T05:04:43.260Z,46.87
2018-02-20T05:07:11.714Z,52.13
2018-02-20T05:09:40.147Z,48.30
2018-02-20T05:12:08.570Z,50.77
2018-02-20T05:14:37.281Z,50.50
2018-02-20T05:17:05.711Z,48.93
2018-02-20T05:19:34.129Z,52.90
2018-02-20T05:22:02.598Z,52.80
2018-02-20T05:24:31.026Z,54.13
2018-02-20T05:26:59.460Z,53.07
2018-02-20T05:29:27.917Z,52.07
2018-02-20T05:31:56.369Z,78.80
2018-02-20T05:34:24.789Z,76.83
2018-02-20T05:36:53.251Z,85.50
2018-02-20T05:39:21.678Z,49.87
2018-02-20T05:41:50.116Z,49.57
2018-02-20T05:44:18.613Z,52.23
2018-02-20T05:46:47.039Z,47.30
2018-02-20T05:49:15.474Z,48.07
2018-02-20T05:51:43.941Z,52.00
2018-02-20T05:54:12.363Z,60.10
2018-02-20T05:56:40.802Z,51.23
2018-02-20T05:59:09.261Z,57.00
2018-02-20T06:01:37.699Z,48.97
2018-02-20T06:04:06.152Z,50.97
2018-02-20T06:06:34.669Z,55.67
2018-02-20T06:09:03.136Z,49.47
2018-02-20T06:11:31.567Z,49.80
2018-02-20T06:14:00.026Z,53.60
2018-02-20T06:16:28.458Z,53.93
2018-02-20T06:18:56.888Z,54.17
2018-02-20T06:21:25.374Z,53.90
2018-02-20T06:23:53.795Z,50.10
2018-02-20T06:26:22.213Z,48.20
2018-02-20T06:28:50.674Z,50.97
2018-02-20T06:31:19.099Z,48.90
2018-02-20T06:33:47.513Z,50.57
2018-02-20T06:36:15.974Z,53.13
2018-02-20T06:38:44.408Z,50.73
2018-02-20T06:41:12.834Z,49.63
2018-02-20T06:43:41.293Z,48.57
2018-02-20T06:46:09.715Z,47.50
2018-02-20T06:48:38.144Z,53.93
2018-02-20T06:51:06.606Z,48.20
2018-02-20T06:53:35.021Z,51.77
2018-02-20T06:56:03.438Z,49.10
2018-02-20T06:58:31.906Z,53.77
2018-02-20T07:01:00.330Z,50.43
2018-02-20T07:03:28.750Z,45.47
2018-02-20T07:05:57.231Z,51.33
2018-02-20T07:08:25.676Z,49.17
2018-02-20T07:10:54.112Z,48.63
2018-02-20T07:13:22.588Z,46.97
2018-02-20T07:15:51.013Z,50.20
2018-02-20T07:18:19.430Z,46.80
2018-02-20T07:20:47.903Z,53.37
2018-02-20T07:23:16.340Z,55.60
2018-02-20T07:25:44.776Z,51.30
2018-02-20T07:28:13.259Z,49.40
2018-02-20T07:30:41.686Z,52.33
2018-02-20T07:33:10.110Z,46.77
2018-02-20T07:35:38.574Z,53.00
2018-02-20T07:38:07.003Z,49.70
2018-02-20T07:40:35.439Z,59.47
2018-02-20T07:43:03.902Z,59.33
2018-02-20T07:45:32.343Z,51.43
2018-02-20T07:48:00.773Z,54.97
2018-02-20T07:50:29.237Z,59.90
2018-02-20T07:52:57.667Z,50.93
2018-02-20T07:55:26.104Z,49.23
2018-02-20T07:57:54.577Z,47.30
2018-02-20T08:00:23.020Z,53.67
2018-02-20T08:02:51.481Z,53.60
2018-02-20T08:05:19.942Z,50.57
2018-02-20T08:07:48.365Z,55.17
2018-02-20T08:10:16.789Z,52.23
2018-02-20T08:12:45.266Z,50.23
2018-02-20T08:15:13.682Z,56.67
2018-02-20T08:17:42.116Z,51.17
2018-02-20T08:20:10.587Z,56.97
2018-02-20T08:22:39.015Z,52.07
2018-02-20T08:25:07.453Z,54.33
2018-02-20T08:27:35.934Z,53.97
2018-02-20T08:30:04.372Z,58.37
2018-02-20T08:32:32.809Z,55.77
2018-02-20T08:35:01.291Z,50.67
2018-02-20T08:37:29.720Z,48.47
2018-02-20T08:39:58.147Z,51.70
2018-02-20T08:42:26.613Z,56.77
2018-02-20T08:44:55.040Z,48.97
2018-02-20T08:47:23.454Z,53.53
2018-02-20T08:49:51.925Z,56.50
2018-02-20T08:52:20.369Z,51.33
2018-02-20T08:54:48.799Z,53.90
2018-02-20T08:57:17.274Z,58.60
2018-02-20T08:59:45.700Z,53.53
2018-02-20T09:02:14.126Z,53.07
2018-02-20T09:04:42.586Z,56.37
2018-02-20T09:07:11.041Z,50.07
2018-02-20T09:09:39.480Z,49.43
2018-02-20T09:12:07.967Z,51.10
2018-02-20T09:14:36.410Z,48.13
2018-02-20T09:17:04.834Z,53.03
2018-02-20T09:19:33.301Z,45.73
2018-02-20T09:22:01.745Z,51.23
2018-02-20T09:24:30.184Z,53.60
2018-02-20T09:26:58.665Z,48.53
2018-02-20T09:29:27.097Z,47.30
2018-02-20T09:31:55.527Z,53.50
2018-02-20T09:34:24.006Z,53.73
2018-02-20T09:36:52.442Z,48.23
2018-02-20T09:39:20.912Z,49.30
2018-02-20T09:41:49.396Z,46.90
2018-02-20T09:44:17.834Z,54.67
2018-02-20T09:46:46.283Z,50.20
2018-02-20T09:49:14.764Z,52.03
2018-02-20T09:51:43.201Z,48.90
2018-02-20T09:54:11.644Z,51.17
2018-02-20T09:56:40.128Z,55.73
2018-02-20T09:59:08.586Z,53.13
2018-02-20T10:01:37.022Z,48.90
2018-02-20T10:04:05.510Z,45.00
2018-02-20T10:06:33.947Z,45.83
2018-02-20T10:09:02.388Z,48.67
2018-02-20T10:11:30.881Z,43.27
2018-02-20T10:13:59.320Z,44.47
2018-02-20T10:16:27.741Z,46.47
2018-02-20T10:18:56.256Z,47.80
2018-02-20T10:21:24.717Z,48.27
2018-02-20T10:23:53.157Z,48.23
2018-02-20T10:26:21.623Z,43.77
2018-02-20T10:28:50.045Z,50.37
2018-02-20T10:31:18.470Z,50.97
2018-02-20T10:33:46.948Z,47.40
2018-02-20T10:36:15.368Z,47.90
2018-02-20T10:38:43.807Z,44.80
2018-02-20T10:41:12.304Z,45.40
2018-02-20T10:43:40.751Z,47.20
2018-02-20T10:46:09.188Z,46.53
2018-02-20T10:48:37.646Z,50.73
2018-02-20T10:51:06.088Z,46.80
2018-02-20T10:53:34.529Z,46.03
2018-02-20T10:56:03.065Z,48.90
2018-02-20T10:58:31.506Z,44.73
2018-02-20T11:00:59.952Z,47.97
2018-02-20T11:03:28.440Z,50.50
2018-02-20T11:05:57.172Z,45.90
2018-02-20T11:08:25.600Z,47.67
2018-02-20T11:10:54.116Z,45.90
2018-02-20T11:13:22.583Z,49.77
2018-02-20T11:15:51.014Z,50.63
2018-02-20T11:18:19.510Z,52.60
2018-02-20T11:20:47.968Z,46.40
2018-02-20T11:23:16.401Z,49.43
2018-02-20T11:25:44.874Z,49.47
2018-02-20T11:28:13.324Z,50.67
2018-02-20T11:30:41.787Z,48.87
2018-02-20T11:33:10.279Z,50.10
2018-02-20T11:35:38.709Z,50.13
2018-02-20T11:38:07.148Z,49.63
2018-02-20T11:40:35.616Z,47.47
2018-02-20T11:43:04.053Z,53.57
2018-02-20T11:45:32.493Z,47.27
2018-02-20T11:48:01.191Z,50.93
2018-02-20T11:50:29.640Z,49.03
2018-02-20T11:52:58.096Z,50.83
2018-02-20T11:55:26.570Z,53.73
2018-02-20T11:57:55.034Z,50.13
2018-02-20T12:00:23.470Z,49.43
2018-02-20T12:02:51.950Z,53.70
2018-02-20T12:05:20.379Z,58.10
2018-02-20T12:07:48.820Z,51.13
2018-02-20T12:10:17.318Z,54.57
2018-02-20T12:12:45.772Z,57.23
2018-02-20T12:15:14.208Z,50.10
2018-02-20T12:17:42.697Z,54.70
2018-02-20T12:20:11.152Z,55.00
2018-02-20T12:22:39.605Z,52.03
2018-02-20T12:25:08.093Z,61.37
2018-02-20T12:27:36.538Z,54.77
2018-02-20T12:30:04.979Z,57.97
2018-02-20T12:32:33.467Z,64.13
2018-02-20T12:35:01.913Z,61.53
2018-02-20T12:37:30.373Z,61.27
2018-02-20T12:39:58.873Z,62.97
2018-02-20T12:42:27.306Z,62.83
2018-02-20T12:44:55.768Z,65.80
2018-02-20T12:47:24.259Z,59.67
2018-02-20T12:49:52.706Z,64.10
2018-02-20T12:52:21.169Z,63.83
2018-02-20T12:54:49.637Z,62.93
2018-02-20T12:57:18.092Z,56.57
2018-02-20T12:59:46.528Z,62.53
2018-02-20T13:02:15.076Z,61.63
2018-02-20T13:04:43.487Z,63.17
2018-02-20T13:07:11.937Z,60.43
2018-02-20T13:09:40.415Z,70.90
2018-02-20T13:12:08.878Z,66.73
2018-02-20T13:14:37.346Z,65.40
2018-02-20T13:17:05.838Z,65.10
2018-02-20T13:19:34.281Z,67.30
2018-02-20T13:22:02.743Z,61.23
2018-02-20T13:24:31.244Z,66.47
2018-02-20T13:26:59.689Z,75.77
2018-02-20T13:29:28.139Z,74.70
2018-02-20T13:31:56.634Z,70.30
2018-02-20T13:34:25.067Z,75.03
2018-02-20T13:36:53.512Z,77.87
2018-02-20T13:39:22.000Z,75.80
2018-02-20T13:41:50.451Z,73.87
2018-02-20T13:44:18.881Z,76.43
2018-02-20T13:46:47.341Z,76.00
2018-02-20T13:49:15.780Z,77.40
2018-02-20T13:51:44.222Z,72.83
2018-02-20T13:54:12.705Z,76.73
2018-02-20T13:56:41.204Z,71.77
2018-02-20T13:59:09.651Z,69.97
2018-02-20T14:01:38.119Z,75.37
2018-02-20T14:04:06.561Z,74.63
2018-02-20T14:06:34.997Z,73.77
2018-02-20T14:09:03.549Z,79.67
2018-02-20T14:11:31.996Z,74.13
2018-02-20T14:14:00.432Z,69.60
2018-02-20T14:16:28.931Z,69.20
2018-02-20T14:18:57.363Z,72.23
2018-02-20T14:21:25.795Z,66.67
2018-02-20T14:23:54.254Z,71.83
2018-02-20T14:26:22.704Z,73.00
2018-02-20T14:28:51.156Z,73.00
2018-02-20T14:31:19.621Z,72.37
2018-02-20T14:33:48.072Z,75.03
2018-02-20T14:36:16.498Z,74.43
2018-02-20T14:38:44.987Z,69.27
2018-02-20T14:41:13.437Z,73.37
2018-02-20T14:43:41.872Z,78.20
2018-02-20T14:46:10.354Z,80.53
2018-02-20T14:48:38.821Z,74.57
2018-02-20T14:51:07.265Z,79.37
2018-02-20T14:53:35.748Z,78.43
2018-02-20T14:56:04.206Z,76.97
2018-02-20T14:58:32.650Z,77.70
2018-02-20T15:01:01.119Z,77.20
2018-02-20T15:03:29.571Z,77.70
2018-02-20T15:05:58.006Z,72.40
2018-02-20T15:08:26.527Z,79.10
2018-02-20T15:10:54.970Z,73.80
2018-02-20T15:13:23.406Z,83.10
2018-02-20T15:15:51.880Z,80.63
2018-02-20T15:18:20.343Z,77.03
2018-02-20T15:20:48.776Z,78.17
2018-02-20T15:23:17.250Z,79.03
2018-02-20T15:25:45.692Z,76.33
2018-02-20T15:28:14.151Z,82.33
2018-02-20T15:30:42.653Z,77.90
2018-02-20T15:33:11.078Z,77.83
2018-02-20T15:35:39.528Z,83.30
2018-02-20T15:38:08.013Z,87.67
2018-02-20T15:40:36.459Z,83.23
2018-02-20T15:43:04.912Z,79.63
2018-02-20T15:45:33.376Z,77.77
2018-02-20T15:48:01.812Z,75.87
2018-02-20T15:50:30.271Z,78.23
2018-02-20T15:52:58.792Z,74.67
2018-02-20T15:55:27.230Z,78.60
2018-02-20T15:57:55.651Z,80.63
2018-02-20T16:00:24.136Z,90.63
2018-02-20T16:02:52.578Z,81.17
2018-02-20T16:05:21.038Z,88.63
2018-02-20T16:07:49.514Z,87.43
2018-02-20T16:10:17.946Z,81.53
2018-02-20T16:12:46.363Z,82.13
2018-02-20T16:15:14.876Z,82.67
2018-02-20T16:17:43.309Z,80.03
2018-02-20T16:20:11.759Z,79.93
2018-02-20T16:22:40.277Z,84.80
2018-02-20T16:25:08.710Z,80.77
2018-02-20T16:27:37.177Z,80.43
2018-02-20T16:30:05.673Z,78.47
2018-02-20T16:32:34.123Z,86.90
2018-02-20T16:35:02.561Z,78.47
2018-02-20T16:37:31.060Z,80.27
2018-02-20T16:39:59.500Z,82.67
2018-02-20T16:42:27.951Z,78.57
2018-02-20T16:44:56.428Z,78.77
2018-02-20T16:47:24.865Z,82.33
2018-02-20T16:49:53.291Z,81.93
2018-02-20T16:52:21.765Z,81.63
2018-02-20T16:54:50.198Z,86.23
2018-02-20T16:57:18.636Z,83.03
2018-02-20T16:59:47.116Z,87.07
2018-02-20T17:02:15.565Z,84.67
2018-02-20T17:04:44.016Z,92.80
2018-02-20T17:07:12.529Z,88.23
2018-02-20T17:09:40.983Z,87.03
2018-02-20T17:12:09.482Z,90.73
2018-02-20T17:14:37.946Z,94.43
2018-02-20T17:17:06.369Z,88.83
2018-02-20T17:19:34.798Z,96.23
2018-02-20T17:22:03.268Z,90.87
2018-02-20T17:24:31.704Z,96.37
2018-02-20T17:27:00.136Z,95.67
2018-02-20T17:29:28.616Z,95.80
2018-02-20T17:31:57.048Z,90.93
2018-02-20T17:34:25.484Z,95.80
2018-02-20T17:36:53.960Z,97.50
2018-02-20T17:39:22.400Z,97.00
2018-02-20T17:41:50.845Z,103.23
2018-02-20T17:44:19.320Z,99.70
2018-02-20T17:46:47.784Z,103.13
2018-02-20T17:49:17.114Z,104.40
2018-02-20T17:51:45.617Z,99.63
2018-02-20T17:54:14.058Z,95.47
2018-02-20T17:56:42.485Z,91.50
2018-02-20T17:59:10.959Z,100.07
2018-02-20T18:01:39.407Z,95.80
2018-02-20T18:04:07.836Z,98.80
2018-02-20T18:06:36.297Z,97.10
2018-02-20T18:09:04.978Z,97.00
2018-02-20T18:11:33.406Z,97.37
2018-02-20T18:14:01.956Z,92.17
2018-02-20T18:16:30.584Z,99.33
2018-02-20T18:18:59.025Z,99.30
2018-02-20T18:21:27.492Z,92.43
2018-02-20T18:23:55.906Z,96.93
2018-02-20T18:26:24.344Z,93.93
2018-02-20T18:28:53.168Z,95.77
2018-02-20T18:31:21.598Z,95.73
2018-02-20T18:33:50.022Z,98.77
2018-02-20T18:36:18.496Z,93.73
2018-02-20T18:38:46.938Z,101.03
2018-02-20T18:41:15.392Z,102.83
2018-02-20T18:43:43.900Z,106.07
2018-02-20T18:46:12.335Z,98.03
2018-02-20T18:48:40.775Z,99.33
2018-02-20T18:51:09.254Z,102.90
2018-02-20T18:53:37.683Z,104.43
2018-02-20T18:56:06.124Z,97.40
2018-02-20T18:58:34.684Z,106.43
2018-02-20T19:01:03.118Z,103.47
2018-02-20T19:03:31.558Z,97.40
2018-02-20T19:06:00.056Z,93.90
2018-02-20T19:08:28.500Z,91.50
2018-02-20T19:10:56.938Z,95.13
2018-02-20T19:13:25.416Z,96.70
2018-02-20T19:15:53.845Z,97.13
2018-02-20T19:18:22.275Z,93.87
2018-02-20T19:20:51.704Z,101.73
2018-02-20T19:23:20.147Z,95.50
2018-02-20T19:25:48.585Z,96.57
2018-02-20T19:28:17.065Z,101.77
2018-02-20T19:30:45.518Z,98.93
2018-02-20T19:33:13.950Z,97.10
2018-02-20T19:35:42.427Z,92.03
2018-02-20T19:38:10.859Z,95.77
2018-02-20T19:40:39.326Z,98.70
2018-02-20T19:43:07.796Z,98.80
2018-02-20T19:45:36.231Z,104.30
2018-02-20T19:48:04.695Z,99.33
2018-02-20T19:50:33.177Z,105.97
2018-02-20T19:53:01.625Z,102.50
2018-02-20T19:55:30.078Z,102.73
2018-02-20T19:57:58.575Z,101.90
2018-02-20T20:00:27.037Z,107.20
2018-02-20T20:02:55.488Z,97.93
2018-02-20T20:05:23.978Z,101.50
2018-02-20T20:07:52.414Z,98.37
2018-02-20T20:10:20.842Z,109.70
2018-02-20T20:12:49.346Z,98.70
2018-02-20T20:15:17.786Z,105.70
2018-02-20T20:17:46.230Z,106.83
2018-02-20T20:20:14.904Z,100.03
2018-02-20T20:22:43.353Z,106.97
2018-02-20T20:25:11.811Z,102.57
2018-02-20T20:27:40.319Z,108.43
2018-02-20T20:30:08.767Z,114.63
2018-02-20T20:32:37.198Z,103.73
2018-02-20T20:35:05.667Z,119.67
2018-02-20T20:37:34.117Z,110.00
2018-02-20T20:40:02.558Z,105.93
2018-02-20T20:42:31.092Z,107.63
2018-02-20T20:44:59.541Z,111.80
2018-02-20T20:47:27.974Z,106.37
2018-02-20T20:49:56.459Z,109.60
2018-02-20T20:52:24.903Z,110.03
2018-02-20T20:54:53.338Z,111.43
2018-02-20T20:57:21.832Z,113.17
2018-02-20T20:59:50.279Z,111.87
2018-02-20T21:02:18.740Z,109.20
2018-02-20T21:04:47.232Z,110.13
2018-02-20T21:07:15.670Z,109.73
2018-02-20T21:09:44.120Z,108.33
2018-02-20T21:12:12.597Z,108.97
2018-02-20T21:14:41.055Z,110.23
2018-02-20T21:17:09.504Z,109.83
2018-02-20T21:19:38.022Z,111.07
2018-02-20T21:22:06.464Z,106.13
2018-02-20T21:24:34.920Z,102.30
2018-02-20T21:27:03.433Z,110.40
2018-02-20T21:29:31.871Z,102.20
2018-02-20T21:32:00.314Z,107.10
2018-02-20T21:34:28.788Z,105.83
2018-02-20T21:36:57.215Z,111.07
2018-02-20T21:39:25.638Z,106.60
2018-02-20T21:41:54.116Z,113.70
2018-02-20T21:44:22.553Z,111.73
2018-02-20T21:46:50.997Z,118.07
2018-02-20T21:49:19.477Z,109.27
2018-02-20T21:51:47.894Z,109.73
2018-02-20T21:54:16.320Z,104.23
2018-02-20T21:56:44.812Z,103.47
2018-02-20T21:59:13.299Z,107.77
2018-02-20T22:01:41.755Z,106.90
2018-02-20T22:04:10.240Z,109.23
2018-02-20T22:06:38.692Z,102.90
2018-02-20T22:09:07.144Z,105.10
2018-02-20T22:11:35.618Z,104.93
2018-02-20T22:14:04.071Z,114.57
2018-02-20T22:16:32.509Z,111.37
2018-02-20T22:19:00.985Z,108.70
2018-02-20T22:21:29.428Z,100.77
2018-02-20T22:23:57.873Z,104.03
2018-02-20T22:26:26.345Z,110.47
2018-02-20T22:28:54.792Z,103.93
2018-02-20T22:31:23.242Z,101.73
2018-02-20T22:33:51.741Z,119.27
2018-02-20T22:36:20.187Z,106.20
2018-02-20T22:38:48.606Z,113.37
2018-02-20T22:41:17.083Z,118.23
2018-02-20T22:43:45.528Z,110.87
2018-02-20T22:46:13.954Z,117.80
2018-02-20T22:48:42.512Z,109.10
2018-02-20T22:51:10.948Z,110.83
2018-02-20T22:53:39.365Z,103.13
2018-02-20T22:56:07.844Z,95.63
2018-02-20T22:58:36.270Z,100.13
2018-02-20T23:01:04.711Z,103.63
2018-02-20T23:03:33.165Z,97.23
2018-02-20T23:06:01.603Z,93.87
2018-02-20T23:08:30.032Z,92.20
2018-02-20T23:10:58.501Z,100.23
2018-02-20T23:13:26.927Z,95.20
2018-02-20T23:15:55.365Z,94.37
2018-02-20T23:18:24.804Z,94.93
2018-02-20T23:20:53.227Z,95.80
2018-02-20T23:23:21.647Z,82.00
2018-02-20T23:25:50.117Z,86.80
2018-02-20T23:28:18.556Z,85.77
2018-02-20T23:30:46.995Z,82.23
2018-02-20T23:33:15.461Z,78.10
2018-02-20T23:35:43.929Z,86.90
2018-02-20T23:38:12.345Z,76.87
2018-02-20T23:40:40.805Z,78.67
2018-02-20T23:43:09.235Z,80.30
2018-02-20T23:45:37.668Z,82.47
2018-02-20T23:48:06.146Z,80.67
2018-02-20T23:50:34.564Z,75.40
2018-02-20T23:53:02.987Z,77.53
2018-02-20T23:55:31.457Z,77.80
2018-02-20T23:57:59.888Z,79.00
